createdAt,value
2022-09-21T00:00:06.559Z,100.00
2022-09-21T00:00:53.903Z,100.00
2022-09-21T00:01:40.710Z,100.00
2022-09-21T00:02:27.482Z,100.00
2022-09-21T00:03:15.177Z,100.00
2022-09-21T00:04:04.039Z,100.00
2022-09-21T00:04:51.137Z,100.00
2022-09-21T00:05:38.659Z,100.00
2022-09-21T00:06:26.857Z,100.00
2022-09-21T00:07:13.647Z,100.00
2022-09-21T00:08:02.508Z,100.00
2022-09-21T00:08:49.638Z,100.00
2022-09-21T00:09:36.398Z,100.00
2022-09-21T00:10:23.107Z,100.00
2022-09-21T00:11:14.592Z,100.00
2022-09-21T00:12:02.567Z,100.00
2022-09-21T00:12:49.377Z,100.00
2022-09-21T00:13:38.079Z,100.00
2022-09-21T00:14:25.488Z,100.00
2022-09-21T00:15:12.268Z,100.00
2022-09-21T00:15:59.369Z,100.00
2022-09-21T00:16:46.140Z,100.00
2022-09-21T00:17:32.877Z,100.00
2022-09-21T00:18:19.508Z,100.00
2022-09-21T00:19:06.857Z,100.00
2022-09-21T00:19:53.657Z,100.00
2022-09-21T00:20:43.820Z,100.00
2022-09-21T00:21:30.658Z,100.00
2022-09-21T00:22:17.648Z,100.00
2022-09-21T00:23:04.679Z,100.00
2022-09-21T00:23:51.408Z,100.00
2022-09-21T00:24:38.258Z,100.00
2022-09-21T00:25:25.028Z,100.00
2022-09-21T00:26:14.708Z,100.00
2022-09-21T00:27:01.497Z,100.00
2022-09-21T00:27:51.478Z,100.00
2022-09-21T00:28:38.837Z,100.00
2022-09-21T00:29:25.526Z,100.00
2022-09-21T00:30:12.698Z,100.00
2022-09-21T00:31:07.257Z,100.00
2022-09-21T00:31:54.175Z,100.00
2022-09-21T00:32:40.937Z,100.00
2022-09-21T00:33:27.647Z,100.00
2022-09-21T00:34:14.358Z,100.00
2022-09-21T00:35:03.063Z,100.00
2022-09-21T00:35:49.847Z,100.00
2022-09-21T00:36:36.614Z,100.00
2022-09-21T00:37:23.601Z,100.00
2022-09-21T00:38:10.637Z,100.00
2022-09-21T00:39:01.720Z,100.00
2022-09-21T00:39:48.479Z,100.00
2022-09-21T00:40:35.257Z,100.00
2022-09-21T00:41:22.549Z,100.00
2022-09-21T00:42:21.017Z,100.00
2022-09-21T00:43:15.780Z,100.00
2022-09-21T00:44:25.421Z,100.00
2022-09-21T00:45:21.336Z,100.00
2022-09-21T00:46:24.609Z,100.00
2022-09-21T00:47:14.078Z,100.00
2022-09-21T00:48:01.058Z,100.00
2022-09-21T00:48:48.178Z,100.00
2022-09-21T00:49:35.409Z,100.00
2022-09-21T00:50:24.368Z,100.00
2022-09-21T00:51:11.128Z,100.00
2022-09-21T00:51:59.448Z,100.00
2022-09-21T00:52:50.117Z,100.00
2022-09-21T00:53:36.738Z,100.00
2022-09-21T00:54:28.286Z,100.00
2022-09-21T00:55:17.628Z,100.00
2022-09-21T00:56:05.209Z,100.00
2022-09-21T00:56:51.849Z,100.00
2022-09-21T00:57:38.927Z,100.00
2022-09-21T00:58:39.247Z,100.00
2022-09-21T00:59:30.141Z,100.00
2022-09-21T01:00:17.199Z,100.00
2022-09-21T01:01:03.912Z,100.00
2022-09-21T01:01:51.526Z,100.00
2022-09-21T01:02:38.588Z,100.00
2022-09-21T01:03:25.591Z,100.00
2022-09-21T01:04:13.847Z,100.00
2022-09-21T01:05:01.128Z,100.00
2022-09-21T01:05:47.811Z,100.00
2022-09-21T01:06:35.277Z,100.00
2022-09-21T01:07:25.329Z,100.00
2022-09-21T01:08:13.647Z,100.00
2022-09-21T01:09:01.268Z,100.00
2022-09-21T01:09:51.557Z,100.00
2022-09-21T01:11:03.957Z,100.00
2022-09-21T01:12:26.978Z,100.00
2022-09-21T01:13:17.259Z,100.00
2022-09-21T01:14:22.217Z,100.00
2022-09-21T01:15:11.645Z,100.00
2022-09-21T01:16:07.834Z,100.00
2022-09-21T01:17:06.717Z,100.00
2022-09-21T01:18:08.798Z,100.00
2022-09-21T01:19:10.688Z,100.00
2022-09-21T01:20:20.703Z,100.00
2022-09-21T01:21:10.878Z,100.00
2022-09-21T01:22:07.728Z,100.00
2022-09-21T01:23:21.449Z,100.00
2022-09-21T01:24:32.208Z,100.00
2022-09-21T01:25:33.177Z,100.00
2022-09-21T01:26:52.438Z,100.00
2022-09-21T01:27:54.785Z,100.00
2022-09-21T01:28:44.015Z,100.00
2022-09-21T01:29:35.897Z,100.00
2022-09-21T01:30:23.781Z,100.00
2022-09-21T01:31:17.235Z,100.00
2022-09-21T01:32:16.158Z,100.00
2022-09-21T01:33:12.197Z,100.00
2022-09-21T01:34:02.798Z,100.00
2022-09-21T01:34:52.377Z,100.00
2022-09-21T01:35:47.691Z,100.00
2022-09-21T01:36:35.333Z,100.00
2022-09-21T01:37:28.978Z,100.00
2022-09-21T01:38:23.528Z,100.00
2022-09-21T01:39:13.228Z,100.00
2022-09-21T01:40:02.907Z,100.00
2022-09-21T01:40:53.679Z,100.00
2022-09-21T01:41:42.087Z,100.00
2022-09-21T01:42:29.796Z,100.00
2022-09-21T01:43:21.577Z,100.00
2022-09-21T01:44:11.357Z,100.00
2022-09-21T01:44:59.648Z,100.00
2022-09-21T01:45:50.343Z,100.00
2022-09-21T01:46:38.820Z,100.00
2022-09-21T01:47:26.157Z,100.00
2022-09-21T01:48:13.867Z,100.00
2022-09-21T01:49:05.078Z,100.00
2022-09-21T01:49:55.098Z,100.00
2022-09-21T01:50:45.928Z,100.00
2022-09-21T01:51:33.438Z,100.00
2022-09-21T01:52:25.022Z,100.00
2022-09-21T01:53:17.897Z,100.00
2022-09-21T01:54:11.617Z,100.00
2022-09-21T01:55:09.657Z,100.00
2022-09-21T01:55:59.528Z,100.00
2022-09-21T01:56:55.387Z,100.00
2022-09-21T01:57:47.588Z,100.00
2022-09-21T01:58:38.949Z,100.00
2022-09-21T01:59:43.358Z,100.00
2022-09-21T02:00:31.584Z,100.00
2022-09-21T02:01:21.868Z,100.00
2022-09-21T02:02:18.686Z,100.00
2022-09-21T02:03:22.278Z,100.00
2022-09-21T02:04:10.638Z,100.00
2022-09-21T02:04:57.358Z,100.00
2022-09-21T02:05:44.199Z,100.00
2022-09-21T02:06:32.167Z,100.00
2022-09-21T02:07:19.187Z,100.00
2022-09-21T02:08:06.797Z,100.00
2022-09-21T02:08:53.967Z,100.00
2022-09-21T02:09:40.678Z,100.00
2022-09-21T02:10:32.691Z,100.00
2022-09-21T02:11:20.071Z,100.00
2022-09-21T02:12:07.171Z,100.00
2022-09-21T02:13:00.097Z,100.00
2022-09-21T02:13:49.170Z,100.00
2022-09-21T02:14:36.789Z,100.00
2022-09-21T02:15:32.937Z,100.00
2022-09-21T02:16:31.903Z,100.00
2022-09-21T02:17:58.849Z,100.00
2022-09-21T02:19:09.498Z,100.00
2022-09-21T02:20:20.959Z,100.00
2022-09-21T02:21:18.558Z,100.00
2022-09-21T02:22:59.679Z,100.00
2022-09-21T02:23:51.499Z,100.00
2022-09-21T02:24:50.528Z,100.00
2022-09-21T02:26:02.238Z,100.00
2022-09-21T02:27:27.527Z,100.00
2022-09-21T02:28:29.507Z,100.00
2022-09-21T02:29:42.660Z,100.00
2022-09-21T02:30:31.607Z,100.00
2022-09-21T02:31:52.538Z,100.00
2022-09-21T02:32:57.847Z,100.00
2022-09-21T02:34:04.477Z,100.00
2022-09-21T02:35:36.383Z,100.00
2022-09-21T02:36:32.098Z,100.00
2022-09-21T02:37:37.749Z,100.00
2022-09-21T02:39:07.220Z,100.00
2022-09-21T02:40:00.944Z,100.00
2022-09-21T02:41:18.748Z,100.00
2022-09-21T02:42:17.497Z,100.00
2022-09-21T02:43:12.857Z,100.00
2022-09-21T02:44:12.597Z,100.00
2022-09-21T02:45:07.049Z,100.00
2022-09-21T02:46:06.372Z,100.00
2022-09-21T02:47:00.939Z,100.00
2022-09-21T02:47:53.647Z,100.00
2022-09-21T02:48:47.139Z,100.00
2022-09-21T02:49:44.507Z,100.00
2022-09-21T02:50:40.279Z,100.00
2022-09-21T02:51:32.790Z,100.00
2022-09-21T02:52:20.907Z,100.00
2022-09-21T02:53:09.408Z,100.00
2022-09-21T02:53:57.117Z,100.00
2022-09-21T02:54:47.388Z,100.00
2022-09-21T02:55:34.527Z,100.00
2022-09-21T02:56:21.960Z,100.00
2022-09-21T02:57:10.256Z,100.00
2022-09-21T02:57:57.817Z,100.00
2022-09-21T02:58:48.196Z,100.00
2022-09-21T02:59:35.188Z,100.00
2022-09-21T03:00:21.908Z,100.00
2022-09-21T03:01:10.982Z,100.00
2022-09-21T03:01:57.845Z,100.00
2022-09-21T03:02:46.120Z,100.00
2022-09-21T03:03:33.278Z,100.00
2022-09-21T03:04:20.118Z,100.00
2022-09-21T03:05:07.892Z,100.00
2022-09-21T03:05:55.948Z,100.00
2022-09-21T03:06:42.768Z,100.00
2022-09-21T03:07:29.488Z,100.00
2022-09-21T03:08:17.465Z,100.00
2022-09-21T03:09:04.178Z,100.00
2022-09-21T03:09:50.871Z,100.00
2022-09-21T03:10:40.060Z,100.00
2022-09-21T03:11:27.128Z,100.00
2022-09-21T03:12:14.050Z,100.00
2022-09-21T03:13:01.787Z,100.00
2022-09-21T03:13:48.428Z,100.00
2022-09-21T03:14:35.099Z,100.00
2022-09-21T03:15:21.718Z,100.00
2022-09-21T03:16:08.612Z,100.00
2022-09-21T03:16:55.417Z,100.00
2022-09-21T03:17:42.117Z,100.00
2022-09-21T03:18:29.108Z,100.00
2022-09-21T03:19:15.878Z,100.00
2022-09-21T03:20:02.758Z,100.00
2022-09-21T03:20:49.648Z,100.00
2022-09-21T03:21:39.222Z,100.00
2022-09-21T03:22:29.088Z,100.00
2022-09-21T03:23:15.875Z,100.00
2022-09-21T03:24:02.808Z,100.00
2022-09-21T03:24:49.977Z,100.00
2022-09-21T03:25:36.788Z,100.00
2022-09-21T03:26:23.518Z,100.00
2022-09-21T03:27:10.279Z,100.00
2022-09-21T03:27:57.708Z,100.00
2022-09-21T03:28:45.288Z,100.00
2022-09-21T03:29:32.140Z,100.00
2022-09-21T03:30:18.891Z,100.00
2022-09-21T03:31:06.826Z,100.00
2022-09-21T03:31:55.138Z,100.00
2022-09-21T03:32:41.808Z,100.00
2022-09-21T03:33:28.677Z,100.00
2022-09-21T03:34:15.438Z,100.00
2022-09-21T03:35:02.179Z,100.00
2022-09-21T03:35:49.247Z,100.00
2022-09-21T03:36:35.968Z,100.00
2022-09-21T03:37:22.887Z,100.00
2022-09-21T03:38:10.057Z,100.00
2022-09-21T03:38:56.730Z,100.00
2022-09-21T03:39:43.356Z,100.00
2022-09-21T03:40:30.169Z,100.00
2022-09-21T03:41:17.140Z,100.00
2022-09-21T03:42:04.678Z,100.00
2022-09-21T03:42:51.438Z,100.00
2022-09-21T03:43:38.218Z,100.00
2022-09-21T03:44:26.888Z,100.00
2022-09-21T03:45:13.577Z,100.00
2022-09-21T03:46:00.326Z,100.00
2022-09-21T03:46:47.139Z,100.00
2022-09-21T03:47:34.237Z,100.00
2022-09-21T03:48:21.788Z,100.00
2022-09-21T03:49:08.548Z,100.00
2022-09-21T03:49:55.338Z,100.00
2022-09-21T03:50:42.318Z,100.00
2022-09-21T03:51:31.657Z,100.00
2022-09-21T03:52:18.406Z,100.00
2022-09-21T03:53:05.738Z,100.00
2022-09-21T03:53:53.198Z,100.00
2022-09-21T03:54:39.998Z,100.00
2022-09-21T03:55:27.648Z,100.00
2022-09-21T03:56:14.408Z,100.00
2022-09-21T03:57:01.202Z,100.00
2022-09-21T03:57:47.997Z,100.00
2022-09-21T03:58:34.696Z,100.00
2022-09-21T03:59:21.409Z,100.00
2022-09-21T04:00:09.973Z,100.00
2022-09-21T04:01:01.991Z,100.00
2022-09-21T04:01:48.827Z,100.00
2022-09-21T04:02:36.945Z,100.00
2022-09-21T04:03:23.908Z,100.00
2022-09-21T04:04:10.638Z,100.00
2022-09-21T04:04:57.549Z,100.00
2022-09-21T04:05:44.217Z,100.00
2022-09-21T04:06:30.997Z,100.00
2022-09-21T04:07:17.747Z,100.00
2022-09-21T04:08:04.510Z,100.00
2022-09-21T04:08:53.459Z,100.00
2022-09-21T04:09:40.277Z,100.00
2022-09-21T04:10:29.368Z,100.00
2022-09-21T04:11:18.159Z,100.00
2022-09-21T04:12:05.099Z,100.00
2022-09-21T04:12:52.237Z,100.00
2022-09-21T04:13:39.138Z,100.00
2022-09-21T04:14:26.067Z,100.00
2022-09-21T04:15:21.929Z,100.00
2022-09-21T04:16:09.931Z,100.00
2022-09-21T04:16:56.837Z,100.00
2022-09-21T04:17:43.643Z,100.00
2022-09-21T04:18:30.336Z,100.00
2022-09-21T04:19:17.307Z,100.00
2022-09-21T04:20:04.698Z,100.00
2022-09-21T04:20:51.407Z,100.00
2022-09-21T04:21:38.398Z,100.00
2022-09-21T04:22:25.211Z,100.00
2022-09-21T04:23:11.887Z,100.00
2022-09-21T04:23:58.687Z,100.00
2022-09-21T04:24:45.429Z,100.00
2022-09-21T04:25:33.828Z,100.00
2022-09-21T04:26:23.157Z,100.00
2022-09-21T04:27:11.268Z,100.00
2022-09-21T04:27:57.975Z,100.00
2022-09-21T04:28:44.678Z,100.00
2022-09-21T04:29:31.368Z,100.00
2022-09-21T04:30:18.261Z,100.00
2022-09-21T04:31:05.251Z,100.00
2022-09-21T04:31:51.972Z,100.00
2022-09-21T04:32:38.980Z,100.00
2022-09-21T04:33:25.672Z,100.00
2022-09-21T04:34:13.327Z,100.00
2022-09-21T04:35:00.027Z,100.00
2022-09-21T04:35:46.709Z,100.00
2022-09-21T04:36:36.682Z,100.00
2022-09-21T04:37:23.708Z,100.00
2022-09-21T04:38:10.478Z,100.00
2022-09-21T04:38:58.067Z,100.00
2022-09-21T04:39:44.809Z,100.00
2022-09-21T04:40:31.571Z,100.00
2022-09-21T04:41:18.809Z,100.00
2022-09-21T04:42:06.377Z,100.00
2022-09-21T04:42:56.408Z,100.00
2022-09-21T04:43:43.840Z,100.00
2022-09-21T04:44:31.099Z,100.00
2022-09-21T04:45:17.851Z,100.00
2022-09-21T04:46:09.947Z,100.00
2022-09-21T04:46:57.782Z,100.00
2022-09-21T04:47:44.454Z,100.00
2022-09-21T04:48:31.128Z,100.00
2022-09-21T04:49:17.863Z,100.00
2022-09-21T04:50:05.133Z,100.00
2022-09-21T04:50:51.891Z,100.00
2022-09-21T04:51:39.199Z,100.00
2022-09-21T04:52:26.168Z,100.00
2022-09-21T04:53:12.808Z,100.00
2022-09-21T04:53:59.558Z,100.00
2022-09-21T04:54:47.338Z,100.00
2022-09-21T04:55:34.277Z,100.00
2022-09-21T04:56:21.278Z,100.00
2022-09-21T04:57:08.311Z,100.00
2022-09-21T04:57:55.447Z,100.00
2022-09-21T04:58:42.769Z,100.00
2022-09-21T04:59:29.640Z,100.00
2022-09-21T05:00:16.467Z,100.00
2022-09-21T05:01:04.624Z,100.00
2022-09-21T05:01:51.468Z,100.00
2022-09-21T05:02:38.157Z,100.00
2022-09-21T05:03:25.707Z,100.00
2022-09-21T05:04:12.488Z,100.00
2022-09-21T05:04:59.379Z,100.00
2022-09-21T05:05:53.939Z,100.00
2022-09-21T05:06:40.627Z,100.00
2022-09-21T05:07:27.358Z,100.00
2022-09-21T05:08:14.038Z,100.00
2022-09-21T05:09:20.092Z,100.00
2022-09-21T05:10:07.169Z,100.00
2022-09-21T05:10:53.921Z,100.00
2022-09-21T05:11:40.667Z,100.00
2022-09-21T05:12:27.508Z,100.00
2022-09-21T05:13:19.136Z,100.00
2022-09-21T05:14:07.138Z,100.00
2022-09-21T05:14:54.107Z,100.00
2022-09-21T05:15:40.880Z,100.00
2022-09-21T05:16:27.738Z,100.00
2022-09-21T05:17:15.122Z,100.00
2022-09-21T05:18:02.494Z,99.64
2022-09-21T05:18:53.278Z,99.52
2022-09-21T05:19:41.290Z,99.54
2022-09-21T05:20:28.248Z,99.23
2022-09-21T05:21:15.897Z,99.06
2022-09-21T05:22:03.259Z,99.21
2022-09-21T05:22:50.217Z,99.37
2022-09-21T05:23:36.928Z,99.30
2022-09-21T05:24:25.518Z,99.15
2022-09-21T05:25:12.367Z,99.16
2022-09-21T05:26:00.478Z,99.20
2022-09-21T05:26:47.589Z,99.22
2022-09-21T05:27:36.119Z,99.52
2022-09-21T05:28:23.697Z,99.13
2022-09-21T05:29:10.625Z,98.76
2022-09-21T05:29:57.948Z,98.51
2022-09-21T05:31:07.248Z,98.47
2022-09-21T05:32:01.569Z,98.89
2022-09-21T05:32:57.509Z,99.23
2022-09-21T05:34:12.548Z,99.42
2022-09-21T05:35:05.997Z,98.98
2022-09-21T05:36:14.457Z,98.05
2022-09-21T05:37:07.438Z,97.89
2022-09-21T05:38:00.023Z,96.72
2022-09-21T05:38:47.448Z,95.71
2022-09-21T05:39:34.457Z,95.39
2022-09-21T05:40:21.685Z,94.78
2022-09-21T05:41:09.538Z,94.13
2022-09-21T05:41:56.910Z,93.43
2022-09-21T05:42:44.269Z,92.51
2022-09-21T05:43:31.461Z,91.91
2022-09-21T05:44:18.478Z,92.70
2022-09-21T05:45:06.428Z,91.88
2022-09-21T05:46:05.612Z,91.41
2022-09-21T05:47:06.498Z,91.17
2022-09-21T05:47:55.786Z,90.37
2022-09-21T05:49:01.288Z,89.73
2022-09-21T05:50:06.578Z,89.48
2022-09-21T05:51:10.367Z,89.88
2022-09-21T05:52:20.478Z,89.62
2022-09-21T05:53:30.439Z,89.96
2022-09-21T05:54:23.274Z,89.98
2022-09-21T05:55:46.568Z,90.53
2022-09-21T05:56:52.199Z,91.01
2022-09-21T05:57:49.398Z,91.63
2022-09-21T05:59:00.418Z,92.03
2022-09-21T06:00:20.468Z,92.26
2022-09-21T06:01:32.666Z,92.67
2022-09-21T06:02:22.192Z,92.79
2022-09-21T06:03:15.506Z,92.57
2022-09-21T06:04:04.539Z,92.99
2022-09-21T06:04:54.280Z,92.76
2022-09-21T06:05:41.418Z,93.26
2022-09-21T06:06:28.251Z,92.62
2022-09-21T06:07:15.078Z,92.29
2022-09-21T06:08:01.947Z,92.40
2022-09-21T06:08:48.746Z,92.83
2022-09-21T06:09:37.171Z,93.22
2022-09-21T06:10:27.357Z,93.11
2022-09-21T06:11:14.605Z,92.59
2022-09-21T06:12:01.424Z,93.02
2022-09-21T06:12:48.188Z,92.78
2022-09-21T06:13:34.898Z,92.42
2022-09-21T06:14:25.650Z,92.64
2022-09-21T06:15:14.268Z,92.30
2022-09-21T06:16:04.399Z,93.04
2022-09-21T06:16:51.725Z,93.20
2022-09-21T06:17:38.657Z,92.88
2022-09-21T06:18:25.388Z,92.60
2022-09-21T06:19:13.071Z,92.42
2022-09-21T06:19:59.958Z,92.63
2022-09-21T06:20:47.574Z,92.92
2022-09-21T06:21:34.339Z,92.81
2022-09-21T06:22:21.237Z,92.83
2022-09-21T06:23:13.059Z,91.34
2022-09-21T06:23:59.938Z,91.76
2022-09-21T06:24:46.658Z,91.77
2022-09-21T06:25:33.451Z,91.35
2022-09-21T06:26:20.171Z,91.79
2022-09-21T06:27:06.828Z,92.37
2022-09-21T06:27:53.497Z,92.19
2022-09-21T06:28:40.324Z,92.15
2022-09-21T06:29:27.056Z,92.67
2022-09-21T06:30:13.988Z,92.87
2022-09-21T06:31:00.849Z,92.40
2022-09-21T06:31:47.543Z,92.20
2022-09-21T06:32:34.208Z,91.44
2022-09-21T06:33:23.488Z,91.39
2022-09-21T06:34:10.167Z,91.01
2022-09-21T06:34:56.948Z,91.54
2022-09-21T06:35:43.658Z,91.05
2022-09-21T06:36:30.513Z,90.98
2022-09-21T06:37:17.368Z,90.97
2022-09-21T06:38:06.327Z,89.52
2022-09-21T06:38:53.016Z,89.44
2022-09-21T06:39:39.781Z,88.78
2022-09-21T06:40:30.996Z,88.63
2022-09-21T06:41:21.314Z,89.58
2022-09-21T06:42:08.128Z,89.90
2022-09-21T06:42:57.538Z,89.91
2022-09-21T06:43:44.387Z,89.32
2022-09-21T06:44:31.208Z,88.52
2022-09-21T06:45:17.834Z,88.33
2022-09-21T06:46:05.121Z,88.78
2022-09-21T06:46:51.920Z,87.97
2022-09-21T06:47:38.591Z,88.25
2022-09-21T06:48:25.972Z,86.86
2022-09-21T06:49:12.719Z,86.55
2022-09-21T06:49:59.408Z,87.02
2022-09-21T06:50:46.259Z,87.52
2022-09-21T06:51:32.998Z,87.48
2022-09-21T06:52:19.697Z,86.30
2022-09-21T06:53:06.392Z,85.87
2022-09-21T06:53:57.527Z,86.88
2022-09-21T06:54:44.202Z,87.06
2022-09-21T06:55:31.568Z,86.54
2022-09-21T06:56:18.258Z,85.42
2022-09-21T06:57:04.988Z,85.24
2022-09-21T06:57:52.039Z,84.47
2022-09-21T06:58:39.062Z,85.64
2022-09-21T06:59:25.757Z,84.92
2022-09-21T07:00:13.858Z,84.30
2022-09-21T07:01:07.639Z,84.95
2022-09-21T07:01:58.429Z,85.03
2022-09-21T07:02:45.813Z,85.47
2022-09-21T07:03:32.549Z,84.67
2022-09-21T07:04:25.024Z,83.76
2022-09-21T07:05:12.468Z,85.08
2022-09-21T07:05:59.240Z,84.08
2022-09-21T07:06:46.302Z,83.86
2022-09-21T07:07:33.427Z,83.96
2022-09-21T07:10:33.827Z,84.96
2022-09-21T07:11:22.189Z,84.84
2022-09-21T07:12:09.324Z,84.57
2022-09-21T07:12:56.182Z,83.31
2022-09-21T07:13:42.887Z,84.15
2022-09-21T07:14:29.638Z,83.54
2022-09-21T07:15:16.518Z,83.85
2022-09-21T07:16:07.451Z,84.65
2022-09-21T07:16:54.228Z,82.98
2022-09-21T07:17:41.189Z,84.20
2022-09-21T07:18:27.839Z,84.89
2022-09-21T07:19:14.529Z,85.51
2022-09-21T07:20:04.798Z,85.19
2022-09-21T07:20:51.979Z,83.29
2022-09-21T07:21:38.830Z,81.29
2022-09-21T07:22:25.531Z,81.96
2022-09-21T07:23:15.459Z,81.67
2022-09-21T07:24:02.199Z,80.64
2022-09-21T07:24:48.981Z,80.86
2022-09-21T07:25:35.627Z,80.56
2022-09-21T07:26:22.849Z,80.70
2022-09-21T07:27:09.629Z,80.83
2022-09-21T07:27:56.308Z,81.53
2022-09-21T07:28:43.088Z,81.21
2022-09-21T07:29:30.777Z,79.67
2022-09-21T07:30:17.538Z,80.46
2022-09-21T07:31:15.570Z,81.30
2022-09-21T07:32:02.437Z,81.89
2022-09-21T07:32:49.269Z,81.34
2022-09-21T07:33:36.829Z,80.94
2022-09-21T07:34:23.508Z,81.36
2022-09-21T07:35:10.310Z,82.83
2022-09-21T07:35:57.201Z,82.92
2022-09-21T07:36:43.967Z,82.79
2022-09-21T07:37:31.743Z,83.04
2022-09-21T07:38:18.518Z,82.20
2022-09-21T07:39:05.319Z,82.01
2022-09-21T07:39:53.329Z,81.96
2022-09-21T07:40:40.054Z,81.88
2022-09-21T07:41:26.900Z,81.03
2022-09-21T07:42:13.539Z,80.31
2022-09-21T07:43:02.499Z,80.05
2022-09-21T07:43:49.459Z,79.13
2022-09-21T07:44:36.209Z,79.36
2022-09-21T07:45:23.051Z,80.36
2022-09-21T07:46:11.700Z,80.35
2022-09-21T07:46:58.537Z,79.79
2022-09-21T07:47:46.539Z,80.21
2022-09-21T07:48:33.310Z,79.23
2022-09-21T07:49:20.210Z,78.45
2022-09-21T07:50:07.290Z,76.94
2022-09-21T07:50:54.090Z,78.85
2022-09-21T07:51:40.768Z,78.07
2022-09-21T07:52:27.958Z,77.39
2022-09-21T07:53:16.601Z,76.16
2022-09-21T07:54:05.317Z,76.48
2022-09-21T07:54:52.237Z,77.00
2022-09-21T07:55:38.958Z,78.17
2022-09-21T07:56:26.258Z,77.76
2022-09-21T07:57:31.599Z,78.10
2022-09-21T07:58:36.570Z,76.61
2022-09-21T07:59:24.028Z,74.88
2022-09-21T08:00:11.329Z,74.55
2022-09-21T08:00:58.130Z,74.91
2022-09-21T08:01:45.056Z,74.91
2022-09-21T08:02:31.998Z,75.86
2022-09-21T08:03:18.890Z,75.79
2022-09-21T08:04:07.670Z,75.49
2022-09-21T08:04:54.999Z,75.19
2022-09-21T08:05:41.817Z,74.59
2022-09-21T08:06:31.115Z,76.76
2022-09-21T08:07:17.867Z,76.61
2022-09-21T08:08:04.598Z,77.06
2022-09-21T08:08:56.564Z,77.48
2022-09-21T08:09:45.448Z,77.87
2022-09-21T08:10:33.028Z,77.88
2022-09-21T08:11:22.288Z,78.62
2022-09-21T08:12:09.281Z,78.90
2022-09-21T08:12:56.813Z,78.77
2022-09-21T08:13:43.918Z,78.70
2022-09-21T08:14:30.709Z,78.95
2022-09-21T08:15:43.973Z,78.18
2022-09-21T08:16:25.780Z,79.00
2022-09-21T08:17:12.668Z,78.82
2022-09-21T08:17:59.714Z,74.87
2022-09-21T08:18:46.478Z,76.45
2022-09-21T08:19:33.360Z,75.58
2022-09-21T08:20:20.685Z,74.44
2022-09-21T08:21:08.502Z,74.28
2022-09-21T08:21:57.875Z,74.55
2022-09-21T08:22:44.871Z,76.65
2022-09-21T08:23:31.831Z,76.90
2022-09-21T08:24:18.477Z,77.29
2022-09-21T08:25:05.550Z,77.50
2022-09-21T08:25:53.037Z,76.87
2022-09-21T08:26:39.842Z,74.21
2022-09-21T08:27:26.573Z,72.85
2022-09-21T08:28:14.918Z,73.21
2022-09-21T08:29:02.841Z,73.94
2022-09-21T08:29:49.838Z,74.63
2022-09-21T08:30:36.629Z,75.32
2022-09-21T08:31:24.529Z,74.77
2022-09-21T08:32:22.805Z,75.37
2022-09-21T08:33:18.299Z,74.64
2022-09-21T08:34:04.978Z,73.70
2022-09-21T08:34:51.689Z,72.37
2022-09-21T08:35:38.694Z,72.88
2022-09-21T08:36:25.670Z,72.86
2022-09-21T08:37:12.457Z,73.57
2022-09-21T08:37:59.212Z,73.98
2022-09-21T08:38:46.200Z,73.45
2022-09-21T08:39:32.898Z,74.48
2022-09-21T08:40:20.396Z,73.71
2022-09-21T08:41:16.877Z,73.65
2022-09-21T08:42:10.134Z,73.62
2022-09-21T08:43:00.398Z,72.45
2022-09-21T08:43:57.528Z,72.45
2022-09-21T08:44:47.357Z,72.33
2022-09-21T08:45:40.105Z,71.93
2022-09-21T08:46:29.233Z,69.97
2022-09-21T08:47:19.188Z,71.56
2022-09-21T08:48:11.358Z,72.66
2022-09-21T08:49:07.186Z,71.27
2022-09-21T08:49:57.327Z,69.09
2022-09-21T08:50:53.187Z,68.68
2022-09-21T08:51:55.164Z,69.13
2022-09-21T08:52:44.916Z,69.06
2022-09-21T08:53:43.214Z,69.65
2022-09-21T08:54:33.017Z,68.13
2022-09-21T08:55:20.878Z,68.99
2022-09-21T08:56:11.607Z,69.51
2022-09-21T08:57:05.554Z,69.00
2022-09-21T08:57:53.290Z,69.28
2022-09-21T08:58:41.387Z,70.49
2022-09-21T08:59:28.737Z,71.19
2022-09-21T09:00:17.527Z,69.19
2022-09-21T09:01:19.603Z,69.10
2022-09-21T09:02:24.945Z,69.22
2022-09-21T09:03:44.169Z,68.69
2022-09-21T09:04:43.709Z,68.48
2022-09-21T09:05:37.198Z,67.28
2022-09-21T09:06:52.568Z,66.97
2022-09-21T09:08:08.050Z,67.88
2022-09-21T09:09:22.281Z,69.50
2022-09-21T09:10:18.518Z,69.91
2022-09-21T09:11:14.239Z,69.81
2022-09-21T09:12:35.179Z,69.28
2022-09-21T09:13:46.687Z,66.06
2022-09-21T09:14:52.109Z,67.03
2022-09-21T09:15:53.955Z,67.09
2022-09-21T09:17:15.277Z,67.17
2022-09-21T09:18:15.318Z,69.79
2022-09-21T09:19:18.060Z,69.63
2022-09-21T09:20:37.019Z,66.90
2022-09-21T09:21:31.407Z,66.52
2022-09-21T09:22:24.092Z,68.54
2022-09-21T09:23:20.757Z,65.82
2022-09-21T09:24:12.789Z,65.68
2022-09-21T09:25:06.298Z,66.40
2022-09-21T09:26:07.007Z,67.08
2022-09-21T09:26:59.740Z,67.37
2022-09-21T09:27:48.021Z,67.90
2022-09-21T09:29:05.049Z,67.01
2022-09-21T09:30:03.129Z,65.76
2022-09-21T09:30:57.874Z,66.26
2022-09-21T09:31:45.011Z,66.13
2022-09-21T09:33:06.399Z,65.59
2022-09-21T09:34:14.787Z,65.40
2022-09-21T09:35:16.958Z,65.81
2022-09-21T09:36:06.441Z,66.95
2022-09-21T09:36:59.605Z,67.26
2022-09-21T09:37:48.190Z,67.05
2022-09-21T09:38:40.907Z,67.15
2022-09-21T09:39:30.091Z,64.18
2022-09-21T09:40:21.100Z,64.42
2022-09-21T09:41:10.578Z,64.87
2022-09-21T09:42:35.316Z,63.77
2022-09-21T09:43:40.981Z,62.95
2022-09-21T09:44:34.718Z,62.45
2022-09-21T09:45:43.070Z,64.10
2022-09-21T09:46:35.535Z,63.29
2022-09-21T09:47:36.996Z,64.57
2022-09-21T09:48:35.908Z,63.63
2022-09-21T09:49:35.021Z,63.36
2022-09-21T09:50:22.030Z,64.44
2022-09-21T09:51:12.198Z,64.18
2022-09-21T09:51:59.249Z,64.77
2022-09-21T09:52:46.949Z,63.75
2022-09-21T09:53:34.319Z,62.70
2022-09-21T09:54:23.138Z,63.83
2022-09-21T09:55:22.374Z,63.27
2022-09-21T09:56:10.808Z,62.05
2022-09-21T09:56:57.450Z,62.32
2022-09-21T09:57:44.558Z,62.69
2022-09-21T09:58:37.292Z,63.08
2022-09-21T09:59:40.047Z,62.32
2022-09-21T10:00:26.829Z,61.82
2022-09-21T10:01:41.237Z,61.35
2022-09-21T10:02:29.878Z,62.57
2022-09-21T10:03:22.775Z,60.94
2022-09-21T10:04:12.234Z,61.19
2022-09-21T10:05:06.040Z,61.25
2022-09-21T10:05:53.590Z,60.39
2022-09-21T10:06:45.851Z,59.09
2022-09-21T10:07:43.690Z,59.66
2022-09-21T10:08:56.629Z,60.35
2022-09-21T10:09:43.600Z,59.78
2022-09-21T10:10:32.961Z,59.80
2022-09-21T10:11:19.828Z,59.32
2022-09-21T10:12:27.643Z,60.64
2022-09-21T10:13:27.448Z,59.28
2022-09-21T10:14:19.185Z,59.17
2022-09-21T10:15:11.238Z,58.71
2022-09-21T10:16:01.451Z,59.06
2022-09-21T10:16:51.957Z,60.13
2022-09-21T10:17:39.004Z,59.57
2022-09-21T10:18:34.137Z,58.10
2022-09-21T10:19:24.179Z,57.64
2022-09-21T10:20:17.338Z,57.12
2022-09-21T10:21:28.619Z,56.83
2022-09-21T10:22:17.537Z,56.96
2022-09-21T10:23:05.537Z,57.12
2022-09-21T10:23:57.354Z,57.14
2022-09-21T10:24:50.399Z,55.83
2022-09-21T10:25:40.176Z,55.93
2022-09-21T10:26:46.318Z,56.52
2022-09-21T10:27:37.477Z,56.28
2022-09-21T10:28:24.422Z,56.01
2022-09-21T10:29:22.155Z,57.05
2022-09-21T10:30:32.547Z,57.30
2022-09-21T10:31:23.886Z,57.99
2022-09-21T10:32:31.167Z,57.33
2022-09-21T10:33:22.426Z,56.17
2022-09-21T10:34:16.217Z,55.75
2022-09-21T10:35:15.205Z,55.55
2022-09-21T10:36:01.948Z,54.11
2022-09-21T10:36:57.666Z,55.70
2022-09-21T10:37:51.561Z,54.29
2022-09-21T10:38:38.358Z,53.97
2022-09-21T10:39:28.177Z,54.55
2022-09-21T10:40:17.840Z,54.98
2022-09-21T10:41:05.378Z,55.03
2022-09-21T10:41:53.160Z,56.25
2022-09-21T10:42:43.220Z,54.42
2022-09-21T10:43:38.698Z,54.22
2022-09-21T10:44:45.058Z,54.81
2022-09-21T10:45:34.944Z,54.73
2022-09-21T10:46:33.711Z,55.59
2022-09-21T10:47:36.208Z,55.14
2022-09-21T10:48:24.909Z,54.93
2022-09-21T10:49:24.928Z,55.29
2022-09-21T10:50:23.848Z,54.30
2022-09-21T10:51:25.077Z,54.40